Time;durP1;ratioP1;P1;durP2;ratioP2;P2;SDS_P1;SDS_P2;PMS_P1;PMS_P2;Temp;Humidity;BMP_temperature;BMP_pressure;BME280_temperature;BME280_humidity;BME280_pressure;Samples;Min_cycle;Max_cycle;Signal;HPM_P1;HPM_P2
2020/12/22 00:00:25;;;;;;;1.10;0.80;;;10.40;99.90;;;;;;5135793;27;20307;-83
2020/12/22 00:02:51;;;;;;;1.00;0.80;;;10.40;99.90;;;;;;5135444;27;20227;-83
2020/12/22 00:05:18;;;;;;;0.98;0.75;;;10.40;99.90;;;;;;5132821;27;20328;-82
2020/12/22 00:07:45;;;;;;;1.20;0.70;;;10.40;99.90;;;;;;5135695;27;20203;-82
2020/12/22 00:10:12;;;;;;;1.85;0.90;;;10.40;99.90;;;;;;5116680;27;20189;-82
2020/12/22 00:12:39;;;;;;;1.35;0.80;;;10.40;99.90;;;;;;5114896;27;20211;-81
2020/12/22 00:15:05;;;;;;;0.90;0.70;;;10.50;99.90;;;;;;5123280;27;20253;-84
2020/12/22 00:17:32;;;;;;;1.05;0.90;;;10.50;99.90;;;;;;5135008;27;20196;-84
2020/12/22 00:19:58;;;;;;;0.82;0.70;;;10.50;99.90;;;;;;5115351;27;20201;-84
2020/12/22 00:22:24;;;;;;;1.20;0.90;;;10.40;99.90;;;;;;5130968;27;20224;-83
2020/12/22 00:24:51;;;;;;;0.90;0.73;;;10.40;99.90;;;;;;5130302;27;20196;-85
2020/12/22 00:27:18;;;;;;;0.95;0.77;;;10.50;99.90;;;;;;5115641;27;20204;-81
2020/12/22 00:29:44;;;;;;;0.90;0.70;;;10.50;99.90;;;;;;5114963;28;20254;-81
2020/12/22 00:32:10;;;;;;;1.10;0.75;;;10.50;99.90;;;;;;5122406;27;20681;-82
2020/12/22 00:34:37;;;;;;;0.95;0.75;;;10.50;99.90;;;;;;5131764;27;20188;-83
2020/12/22 00:37:03;;;;;;;1.23;0.70;;;10.50;99.90;;;;;;5114987;27;20539;-83
2020/12/22 00:39:30;;;;;;;0.90;0.70;;;10.50;99.90;;;;;;5133851;27;20219;-80
2020/12/22 00:41:58;;;;;;;1.00;0.80;;;10.50;99.90;;;;;;5115556;27;20238;-81
2020/12/22 00:44:25;;;;;;;0.98;0.70;;;10.60;99.90;;;;;;5114201;28;20220;-81
2020/12/22 00:46:51;;;;;;;1.40;0.70;;;10.60;99.90;;;;;;5124503;27;20188;-81
2020/12/22 00:49:18;;;;;;;0.95;0.82;;;10.60;99.90;;;;;;5129813;27;20200;-81
2020/12/22 00:51:44;;;;;;;2.50;0.95;;;10.60;99.90;;;;;;5114215;27;20219;-81
2020/12/22 00:54:10;;;;;;;0.88;0.70;;;10.60;99.90;;;;;;5114356;28;20200;-80
2020/12/22 00:56:37;;;;;;;1.90;0.93;;;10.60;99.90;;;;;;5132008;27;20196;-80
2020/12/22 00:59:04;;;;;;;1.60;0.80;;;10.70;99.90;;;;;;5120388;27;20333;-80
2020/12/22 01:01:30;;;;;;;1.83;0.90;;;10.70;99.90;;;;;;5113278;27;20529;-80
2020/12/22 01:03:57;;;;;;;0.88;0.68;;;10.70;99.90;;;;;;5113671;27;20193;-80
2020/12/22 01:06:23;;;;;;;1.00;0.80;;;10.60;99.90;;;;;;5115037;27;20785;-80
2020/12/22 01:08:49;;;;;;;0.93;0.75;;;10.60;99.90;;;;;;5113922;27;20195;-80
2020/12/22 01:11:16;;;;;;;1.00;0.80;;;10.70;99.90;;;;;;5125508;27;20211;-80
2020/12/22 01:13:42;;;;;;;0.90;0.60;;;10.70;99.90;;;;;;5133785;27;20196;-79
2020/12/22 01:16:09;;;;;;;1.40;0.90;;;10.70;99.90;;;;;;5133643;27;20596;-80
2020/12/22 01:18:35;;;;;;;1.10;1.00;;;10.70;99.90;;;;;;5132630;27;20200;-80
2020/12/22 01:21:01;;;;;;;1.10;0.70;;;10.70;99.90;;;;;;5133745;27;20212;-80
2020/12/22 01:23:28;;;;;;;1.10;0.88;;;10.70;99.90;;;;;;5129256;27;20529;-80
2020/12/22 01:25:54;;;;;;;1.20;0.80;;;10.70;99.90;;;;;;5126335;27;20698;-81
2020/12/22 01:28:20;;;;;;;2.03;0.80;;;10.70;99.90;;;;;;5126647;27;20192;-80
2020/12/22 01:30:46;;;;;;;0.85;0.70;;;10.80;99.90;;;;;;5118292;27;20234;-80
2020/12/22 01:33:14;;;;;;;1.80;0.90;;;10.80;99.90;;;;;;5133896;27;20211;-81
2020/12/22 01:35:40;;;;;;;1.80;1.00;;;10.80;99.90;;;;;;5122786;27;20197;-80
2020/12/22 01:38:06;;;;;;;1.00;0.80;;;10.80;99.90;;;;;;5112903;28;20201;-81
2020/12/22 01:40:32;;;;;;;1.05;0.85;;;10.80;99.90;;;;;;5114121;27;20220;-81
2020/12/22 01:42:59;;;;;;;1.00;0.70;;;10.80;99.90;;;;;;5113028;28;20224;-81
2020/12/22 01:45:25;;;;;;;1.52;0.90;;;10.80;99.90;;;;;;5113289;28;20208;-82
2020/12/22 01:47:52;;;;;;;1.30;0.90;;;10.80;99.90;;;;;;5112792;27;20196;-81
2020/12/22 01:50:20;;;;;;;1.00;0.90;;;10.80;99.90;;;;;;5113416;28;20655;-81
2020/12/22 01:52:46;;;;;;;1.00;0.80;;;10.90;99.90;;;;;;5113219;28;20193;-80
2020/12/22 01:55:13;;;;;;;0.90;0.70;;;10.90;99.90;;;;;;5122603;27;20196;-80
2020/12/22 01:57:39;;;;;;;2.22;1.10;;;10.90;99.90;;;;;;5128628;27;20788;-79
2020/12/22 02:00:06;;;;;;;1.58;0.85;;;10.90;99.90;;;;;;5112875;28;20566;-80
2020/12/22 02:02:33;;;;;;;1.30;0.90;;;10.90;99.90;;;;;;5113326;27;20224;-81
2020/12/22 02:04:59;;;;;;;1.38;1.10;;;10.90;99.90;;;;;;5113012;28;20195;-80
2020/12/22 02:07:26;;;;;;;1.17;1.00;;;11.00;99.90;;;;;;5125601;27;20192;-82
2020/12/22 02:09:53;;;;;;;0.90;0.77;;;11.00;99.90;;;;;;5132131;27;20192;-82
2020/12/22 02:12:19;;;;;;;1.13;0.75;;;11.00;99.90;;;;;;5120037;27;20192;-82
2020/12/22 02:14:46;;;;;;;1.58;0.88;;;11.00;99.90;;;;;;5112626;28;20191;-81
2020/12/22 02:17:14;;;;;;;1.52;0.90;;;11.00;99.90;;;;;;5112668;28;20194;-81
2020/12/22 02:19:40;;;;;;;1.10;0.90;;;11.00;99.90;;;;;;5112701;28;20232;-81
2020/12/22 02:22:08;;;;;;;1.85;0.90;;;11.00;99.90;;;;;;5113106;28;20209;-82
2020/12/22 02:24:34;;;;;;;1.05;0.90;;;11.00;99.90;;;;;;5133040;27;20214;-81
2020/12/22 02:27:01;;;;;;;2.75;0.90;;;11.00;99.90;;;;;;5133053;27;20192;-81
2020/12/22 02:29:28;;;;;;;0.95;0.80;;;11.10;99.90;;;;;;5116596;27;20590;-80
2020/12/22 02:31:54;;;;;;;1.20;0.90;;;11.10;99.90;;;;;;5112414;28;20208;-81
2020/12/22 02:34:20;;;;;;;1.42;0.80;;;11.10;99.90;;;;;;5112017;28;20205;-79
2020/12/22 02:36:48;;;;;;;1.10;1.00;;;11.10;99.90;;;;;;5130097;27;20191;-80
2020/12/22 02:39:15;;;;;;;1.02;0.90;;;11.10;99.90;;;;;;5132458;27;20203;-80
2020/12/22 02:41:41;;;;;;;1.08;0.90;;;11.10;99.90;;;;;;5116625;27;20219;-82
2020/12/22 02:44:08;;;;;;;0.90;0.60;;;11.10;99.90;;;;;;5112779;28;20732;-83
2020/12/22 02:46:34;;;;;;;1.00;0.80;;;11.10;99.90;;;;;;5113162;28;20212;-83
2020/12/22 02:49:01;;;;;;;1.10;0.90;;;11.20;99.90;;;;;;5112151;28;20197;-83
2020/12/22 02:51:29;;;;;;;1.25;0.90;;;11.10;99.90;;;;;;5112729;28;20597;-84
2020/12/22 02:53:55;;;;;;;1.08;0.90;;;11.20;99.90;;;;;;5113454;28;20208;-83
2020/12/22 02:56:22;;;;;;;1.02;0.80;;;11.20;99.90;;;;;;5112441;28;20189;-83
2020/12/22 02:58:50;;;;;;;1.83;1.05;;;11.20;99.90;;;;;;5117530;28;20203;-83
2020/12/22 03:01:16;;;;;;;1.13;0.80;;;11.20;99.90;;;;;;5114078;28;20307;-82
2020/12/22 03:03:42;;;;;;;1.00;0.80;;;11.20;99.90;;;;;;5112461;28;20204;-81
2020/12/22 03:06:09;;;;;;;1.80;1.00;;;11.30;99.90;;;;;;5111919;28;20192;-80
2020/12/22 03:08:35;;;;;;;1.00;0.90;;;11.30;99.90;;;;;;5112206;28;20201;-81
2020/12/22 03:11:01;;;;;;;1.50;1.00;;;11.30;99.90;;;;;;5120948;27;20200;-86
2020/12/22 03:13:28;;;;;;;2.25;0.80;;;11.30;99.90;;;;;;5134167;27;20188;-85
2020/12/22 03:15:54;;;;;;;1.58;1.02;;;11.30;99.90;;;;;;5120944;27;20203;-85
2020/12/22 03:18:21;;;;;;;1.63;0.85;;;11.30;99.90;;;;;;5114108;28;20690;-85
2020/12/22 03:20:47;;;;;;;0.90;0.80;;;11.40;99.90;;;;;;5113740;28;20212;-86
2020/12/22 03:23:13;;;;;;;1.17;0.90;;;11.40;99.90;;;;;;5114402;28;20196;-85
2020/12/22 03:25:40;;;;;;;2.53;0.90;;;11.40;99.90;;;;;;5114998;28;20197;-85
2020/12/22 03:28:06;;;;;;;1.00;0.80;;;11.40;99.90;;;;;;5117646;28;20204;-85
2020/12/22 03:30:33;;;;;;;1.88;0.82;;;11.40;99.90;;;;;;5134198;28;20196;-85
2020/12/22 03:32:59;;;;;;;1.00;0.80;;;11.40;99.90;;;;;;5133456;27;20192;-84
2020/12/22 03:35:26;;;;;;;1.00;0.80;;;11.40;99.90;;;;;;5136683;27;20188;-85
2020/12/22 03:37:52;;;;;;;1.80;1.17;;;11.40;99.90;;;;;;5137759;27;20198;-84
2020/12/22 03:40:20;;;;;;;1.00;0.80;;;11.40;99.90;;;;;;5137334;27;20227;-84
2020/12/22 03:42:46;;;;;;;1.00;0.85;;;11.40;99.90;;;;;;5135397;27;20582;-80
2020/12/22 03:45:16;;;;;;;1.48;1.00;;;11.50;99.90;;;;;;5129856;27;20205;-80
2020/12/22 03:47:43;;;;;;;1.30;0.90;;;11.50;99.90;;;;;;5115710;28;20204;-81
2020/12/22 03:50:10;;;;;;;1.60;1.05;;;11.50;99.90;;;;;;5115817;28;20249;-82
2020/12/22 03:52:37;;;;;;;1.73;1.00;;;11.50;99.90;;;;;;5118718;27;20184;-81
2020/12/22 03:55:03;;;;;;;2.75;0.90;;;11.50;99.90;;;;;;5135536;27;20192;-80
2020/12/22 03:57:30;;;;;;;2.35;0.90;;;11.50;99.90;;;;;;5135924;27;20619;-82
2020/12/22 03:59:56;;;;;;;1.25;1.15;;;11.50;99.90;;;;;;5115234;27;20197;-82
2020/12/22 04:02:22;;;;;;;1.15;0.90;;;11.60;99.90;;;;;;5115992;27;20222;-83
2020/12/22 04:04:49;;;;;;;1.10;0.95;;;11.50;99.90;;;;;;5116340;27;20189;-81
2020/12/22 04:07:16;;;;;;;1.83;0.98;;;11.60;99.90;;;;;;5117053;27;20192;-84
2020/12/22 04:09:42;;;;;;;1.60;1.15;;;11.60;99.90;;;;;;5116219;27;20628;-83
2020/12/22 04:12:08;;;;;;;1.80;1.13;;;11.60;99.90;;;;;;5116306;28;20199;-85
2020/12/22 04:14:34;;;;;;;1.20;0.90;;;11.60;99.90;;;;;;5117673;27;20204;-85
2020/12/22 04:17:01;;;;;;;4.32;1.58;;;11.60;99.90;;;;;;5116113;28;20200;-83
2020/12/22 04:19:27;;;;;;;2.00;1.15;;;11.70;99.90;;;;;;5115157;28;20201;-81
2020/12/22 04:21:54;;;;;;;1.40;1.00;;;11.70;99.90;;;;;;5114796;27;20200;-82
2020/12/22 04:24:20;;;;;;;1.10;1.00;;;11.70;99.90;;;;;;5116340;27;20528;-83
2020/12/22 04:26:47;;;;;;;1.30;1.20;;;11.70;99.90;;;;;;5115398;28;20249;-83
2020/12/22 04:29:13;;;;;;;2.65;1.10;;;11.70;99.90;;;;;;5121364;27;20197;-83
2020/12/22 04:31:39;;;;;;;1.40;1.23;;;11.70;99.90;;;;;;5114821;28;20199;-82
2020/12/22 04:34:05;;;;;;;3.38;1.23;;;11.70;99.90;;;;;;5115240;27;20193;-82
2020/12/22 04:36:32;;;;;;;1.10;0.90;;;11.80;99.90;;;;;;5114904;28;20197;-82
2020/12/22 04:39:00;;;;;;;3.72;1.30;;;11.80;99.90;;;;;;5120060;27;20326;-83
2020/12/22 04:41:26;;;;;;;2.78;1.30;;;11.80;99.90;;;;;;5114831;28;20233;-82
2020/12/22 04:43:53;;;;;;;1.65;1.27;;;11.80;99.90;;;;;;5133288;27;20198;-83
2020/12/22 04:46:21;;;;;;;1.80;1.70;;;11.80;99.90;;;;;;5116187;27;20537;-82
2020/12/22 04:48:52;;;;;;;2.40;1.50;;;11.80;99.90;;;;;;5114574;27;20665;-82
2020/12/22 04:51:20;;;;;;;3.00;1.48;;;11.80;99.90;;;;;;5124456;27;20183;-81
2020/12/22 04:53:46;;;;;;;1.40;1.30;;;11.90;99.90;;;;;;5125974;27;20219;-80
2020/12/22 04:56:13;;;;;;;1.58;1.48;;;11.80;99.90;;;;;;5114483;27;20193;-79
2020/12/22 04:58:40;;;;;;;1.50;1.40;;;11.90;99.90;;;;;;5126768;27;20200;-79
2020/12/22 05:01:07;;;;;;;1.50;1.40;;;11.90;99.90;;;;;;5113542;28;20283;-79
2020/12/22 05:03:34;;;;;;;1.60;1.25;;;11.90;99.90;;;;;;5128069;27;20192;-78
2020/12/22 05:06:00;;;;;;;1.55;1.45;;;11.90;99.90;;;;;;5132632;27;20702;-79
2020/12/22 05:08:26;;;;;;;1.70;1.60;;;12.00;99.90;;;;;;5134122;27;20207;-79
2020/12/22 05:10:53;;;;;;;2.22;1.67;;;11.90;99.90;;;;;;5134380;27;20192;-80
2020/12/22 05:13:21;;;;;;;7.13;1.75;;;12.00;99.90;;;;;;5122062;27;20199;-80
2020/12/22 05:15:49;;;;;;;2.05;1.50;;;12.00;99.90;;;;;;5113393;28;20204;-81
2020/12/22 05:18:15;;;;;;;2.05;1.63;;;12.00;99.90;;;;;;5119841;27;20192;-80
2020/12/22 05:20:43;;;;;;;1.60;1.50;;;12.00;99.90;;;;;;5113307;28;20804;-80
2020/12/22 05:23:13;;;;;;;2.30;1.80;;;12.00;99.90;;;;;;5113502;28;20299;-79
2020/12/22 05:25:40;;;;;;;1.55;1.45;;;12.00;99.90;;;;;;5113590;28;20211;-80
2020/12/22 05:28:07;;;;;;;2.45;1.67;;;12.10;99.90;;;;;;5116744;27;20197;-82
2020/12/22 05:30:37;;;;;;;1.85;1.75;;;12.10;99.90;;;;;;5126073;27;20201;-82
2020/12/22 05:33:04;;;;;;;1.88;1.77;;;12.10;99.90;;;;;;5113005;28;20229;-82
2020/12/22 05:35:34;;;;;;;4.72;1.75;;;12.10;99.90;;;;;;5113181;28;20269;-81
2020/12/22 05:38:02;;;;;;;1.65;1.40;;;12.10;99.90;;;;;;5116054;27;20210;-80
2020/12/22 05:40:28;;;;;;;2.00;1.90;;;12.10;99.90;;;;;;5133605;27;20232;-80
2020/12/22 05:42:55;;;;;;;2.17;1.98;;;12.20;99.90;;;;;;5123844;27;20212;-80
2020/12/22 05:45:21;;;;;;;1.80;1.70;;;12.20;99.90;;;;;;5130799;27;20212;-80
2020/12/22 05:47:53;;;;;;;2.20;2.10;;;12.20;99.90;;;;;;5112772;28;20759;-81
2020/12/22 05:50:21;;;;;;;2.38;2.17;;;12.20;99.90;;;;;;5112944;28;20208;-80
2020/12/22 05:52:51;;;;;;;1.95;1.85;;;12.20;99.90;;;;;;5118844;27;20185;-79
2020/12/22 05:55:25;;;;;;;2.67;1.75;;;12.20;99.90;;;;;;5113200;27;20195;-82
2020/12/22 05:58:06;;;;;;;1.85;1.75;;;12.20;99.90;;;;;;5119943;27;20248;-80
2020/12/22 06:00:33;;;;;;;4.50;2.03;;;12.20;99.90;;;;;;5133117;27;20196;-80
2020/12/22 06:03:07;;;;;;;1.60;1.50;;;12.30;99.90;;;;;;5113034;27;20216;-80
2020/12/22 06:05:36;;;;;;;2.08;1.98;;;12.30;99.90;;;;;;5112838;28;20181;-80
2020/12/22 06:08:05;;;;;;;1.50;1.30;;;12.30;99.90;;;;;;5112247;28;20652;-80
2020/12/22 06:10:31;;;;;;;2.10;2.00;;;12.30;99.90;;;;;;5112203;28;20208;-80
2020/12/22 06:12:59;;;;;;;2.10;1.67;;;12.30;99.90;;;;;;5112179;28;20203;-80
2020/12/22 06:15:26;;;;;;;1.70;1.20;;;12.30;99.90;;;;;;5112424;28;20200;-80
2020/12/22 06:17:53;;;;;;;2.60;1.40;;;12.30;99.90;;;;;;5111804;28;20192;-80
2020/12/22 06:20:23;;;;;;;2.88;2.17;;;12.30;99.90;;;;;;5112412;28;20277;-81
2020/12/22 06:22:50;;;;;;;1.90;1.80;;;12.30;99.90;;;;;;5111836;28;20193;-81
2020/12/22 06:25:21;;;;;;;1.80;1.70;;;12.40;99.90;;;;;;5112268;28;20205;-83
2020/12/22 06:27:48;;;;;;;2.70;1.85;;;12.40;99.90;;;;;;5112657;28;20200;-83
2020/12/22 06:30:17;;;;;;;2.30;2.10;;;12.30;99.90;;;;;;5112797;28;20210;-84
2020/12/22 06:32:43;;;;;;;1.50;1.40;;;12.40;99.90;;;;;;5117012;27;20184;-85
2020/12/22 06:35:31;;;;;;;3.08;2.05;;;12.40;99.90;;;;;;5124364;27;20230;-84
2020/12/22 06:37:58;;;;;;;1.70;1.60;;;12.40;99.90;;;;;;5112733;28;20200;-83
2020/12/22 06:40:52;;;;;;;1.55;1.45;;;12.40;99.90;;;;;;5113279;28;20232;-81
2020/12/22 06:43:40;;;;;;;1.77;1.67;;;12.40;99.90;;;;;;5112122;28;20224;-81
2020/12/22 06:46:10;;;;;;;1.63;1.52;;;12.40;99.90;;;;;;5111836;28;20636;-81
2020/12/22 06:48:44;;;;;;;3.00;1.95;;;12.40;99.90;;;;;;5114661;28;20638;-81
2020/12/22 06:51:27;;;;;;;1.95;1.73;;;12.40;99.90;;;;;;5111939;28;20720;-81
2020/12/22 06:53:54;;;;;;;1.70;1.50;;;12.40;99.90;;;;;;5132651;27;20210;-84
2020/12/22 06:56:40;;;;;;;2.03;1.70;;;12.40;99.90;;;;;;5130484;27;20193;-83
2020/12/22 06:59:08;;;;;;;2.15;1.60;;;12.40;99.90;;;;;;5116601;28;20200;-84
2020/12/22 07:01:36;;;;;;;1.65;1.55;;;12.40;99.90;;;;;;5132716;27;20223;-81
2020/12/22 07:04:14;;;;;;;2.00;1.80;;;12.50;99.90;;;;;;5132766;27;20204;-81
2020/12/22 07:07:01;;;;;;;2.20;2.00;;;12.40;99.90;;;;;;5126642;27;20193;-83
2020/12/22 07:09:29;;;;;;;2.10;1.90;;;12.40;99.90;;;;;;5112810;28;20200;-85
2020/12/22 07:12:09;;;;;;;1.75;1.48;;;12.50;99.90;;;;;;5116531;28;20192;-85
2020/12/22 07:14:37;;;;;;;2.28;2.08;;;12.50;99.90;;;;;;5115928;28;20192;-86
2020/12/22 07:17:04;;;;;;;1.70;1.60;;;12.50;99.90;;;;;;5116192;28;20204;-85
2020/12/22 07:19:32;;;;;;;1.40;1.30;;;12.50;99.90;;;;;;5121859;27;20188;-85
2020/12/22 07:22:01;;;;;;;1.88;1.77;;;12.50;99.90;;;;;;5129012;27;20602;-85
2020/12/22 07:24:28;;;;;;;1.65;1.55;;;12.50;99.90;;;;;;5116354;28;20193;-82
2020/12/22 07:26:55;;;;;;;2.53;1.70;;;12.50;99.90;;;;;;5115951;28;20204;-84
2020/12/22 07:29:21;;;;;;;2.30;1.67;;;12.50;99.90;;;;;;5129455;27;20196;-84
2020/12/22 07:31:48;;;;;;;2.13;2.00;;;12.50;99.90;;;;;;5122028;27;20190;-84
2020/12/22 07:34:15;;;;;;;2.80;2.10;;;12.50;99.90;;;;;;5136203;27;20196;-82
2020/12/22 07:36:41;;;;;;;2.15;2.05;;;12.50;99.90;;;;;;5116582;27;20193;-81
2020/12/22 07:39:21;;;;;;;2.38;1.80;;;12.50;99.90;;;;;;5116704;27;20188;-80
2020/12/22 07:41:48;;;;;;;2.85;1.70;;;12.50;99.90;;;;;;5134724;27;20214;-83
2020/12/22 07:44:16;;;;;;;2.47;2.28;;;12.60;99.90;;;;;;5116635;27;20203;-83
2020/12/22 07:46:43;;;;;;;2.63;2.42;;;12.60;99.90;;;;;;5115645;27;20201;-83
2020/12/22 07:49:12;;;;;;;2.30;2.08;;;12.60;99.90;;;;;;5116977;27;20196;-83
2020/12/22 07:51:41;;;;;;;2.17;1.85;;;12.60;99.90;;;;;;5115301;28;20264;-83
2020/12/22 07:54:08;;;;;;;2.35;2.10;;;12.60;99.90;;;;;;5115254;28;20201;-84
2020/12/22 07:56:37;;;;;;;3.67;2.20;;;12.60;99.90;;;;;;5118996;27;20207;-83
2020/12/22 07:59:05;;;;;;;2.30;2.10;;;12.60;99.90;;;;;;5118855;27;20192;-82
2020/12/22 08:01:32;;;;;;;2.40;2.20;;;12.60;99.90;;;;;;5116735;27;20196;-84
2020/12/22 08:03:59;;;;;;;2.95;2.58;;;12.60;99.90;;;;;;5117846;27;20204;-78
2020/12/22 08:06:25;;;;;;;1.70;1.48;;;12.60;99.90;;;;;;5124092;27;20197;-79
2020/12/22 08:09:01;;;;;;;2.83;2.63;;;12.60;99.90;;;;;;5125112;27;20199;-80
2020/12/22 08:11:27;;;;;;;3.25;2.10;;;12.60;99.90;;;;;;5114817;28;20195;-82
2020/12/22 08:13:55;;;;;;;2.30;2.10;;;12.60;99.90;;;;;;5114805;27;20201;-80
2020/12/22 08:16:22;;;;;;;2.90;2.67;;;12.60;99.90;;;;;;5118142;27;20207;-81
2020/12/22 08:18:49;;;;;;;2.95;2.17;;;12.60;99.90;;;;;;5119128;27;20248;-81
2020/12/22 08:21:19;;;;;;;3.90;2.90;;;12.60;99.90;;;;;;5125168;27;20204;-80
2020/12/22 08:23:47;;;;;;;2.60;2.40;;;12.60;99.90;;;;;;5121967;27;20200;-80
2020/12/22 08:26:17;;;;;;;2.38;2.10;;;12.70;99.90;;;;;;5113798;28;20200;-80
2020/12/22 08:28:55;;;;;;;2.22;2.03;;;12.70;99.90;;;;;;5113063;27;20193;-80
2020/12/22 08:31:23;;;;;;;2.40;2.20;;;12.70;99.90;;;;;;5113405;28;20200;-80
2020/12/22 08:33:55;;;;;;;3.30;1.92;;;12.70;99.90;;;;;;5113613;28;20197;-80
2020/12/22 08:36:22;;;;;;;2.42;2.22;;;12.70;99.90;;;;;;5112533;28;20189;-79
2020/12/22 08:38:49;;;;;;;2.38;2.17;;;12.70;99.90;;;;;;5112107;28;20193;-80
2020/12/22 08:41:17;;;;;;;3.03;2.83;;;12.70;99.90;;;;;;5116831;27;20224;-79
2020/12/22 08:43:51;;;;;;;3.33;2.55;;;12.70;99.90;;;;;;5121254;27;20241;-80
2020/12/22 08:46:19;;;;;;;3.47;2.63;;;12.70;99.90;;;;;;5133973;27;20204;-79
2020/12/22 08:48:47;;;;;;;2.85;2.38;;;12.70;99.90;;;;;;5120649;27;20614;-79
2020/12/22 08:51:24;;;;;;;3.42;2.72;;;12.70;99.90;;;;;;5115857;27;20277;-80
2020/12/22 08:53:53;;;;;;;2.45;2.25;;;12.70;99.90;;;;;;5112821;28;20193;-79
2020/12/22 08:56:23;;;;;;;2.13;1.92;;;12.70;99.90;;;;;;5113715;28;20197;-79
2020/12/22 08:58:54;;;;;;;2.17;2.00;;;12.70;99.90;;;;;;5118600;27;20212;-79
2020/12/22 09:01:22;;;;;;;3.33;3.13;;;12.80;99.90;;;;;;5132937;27;20200;-80
2020/12/22 09:03:51;;;;;;;2.88;2.50;;;12.80;99.90;;;;;;5131878;27;20200;-80
2020/12/22 09:06:17;;;;;;;3.53;2.33;;;12.80;99.90;;;;;;5116724;27;20226;-80
2020/12/22 09:08:45;;;;;;;2.78;2.55;;;12.80;99.90;;;;;;5122577;27;20192;-81
2020/12/22 09:11:18;;;;;;;2.65;2.45;;;12.80;99.90;;;;;;5115481;27;20201;-80
2020/12/22 09:13:45;;;;;;;2.80;2.60;;;12.80;99.90;;;;;;5112815;27;20219;-81
2020/12/22 09:16:11;;;;;;;2.67;2.45;;;12.80;99.90;;;;;;5112580;28;20193;-81
2020/12/22 09:18:38;;;;;;;2.72;2.40;;;12.80;99.90;;;;;;5123538;27;20192;-80
2020/12/22 09:21:07;;;;;;;3.70;2.95;;;12.80;99.90;;;;;;5118677;27;20211;-81
2020/12/22 09:23:43;;;;;;;2.97;2.78;;;12.80;99.90;;;;;;5113124;28;20217;-81
2020/12/22 09:26:09;;;;;;;3.28;2.97;;;12.80;99.90;;;;;;5133573;27;20276;-80
2020/12/22 09:28:35;;;;;;;2.92;2.72;;;12.80;99.90;;;;;;5115515;27;20207;-84
2020/12/22 09:31:02;;;;;;;2.50;2.30;;;12.90;99.90;;;;;;5125239;27;20258;-82
2020/12/22 09:33:28;;;;;;;2.95;2.75;;;12.90;99.90;;;;;;5126443;27;20192;-84
2020/12/22 09:35:55;;;;;;;2.60;2.40;;;12.90;99.90;;;;;;5120007;27;20196;-85
2020/12/22 09:38:21;;;;;;;2.40;2.22;;;12.90;99.90;;;;;;5134509;27;20289;-84
2020/12/22 09:40:48;;;;;;;3.22;2.58;;;13.00;99.90;;;;;;5116804;27;20228;-84
2020/12/22 09:43:14;;;;;;;3.53;2.13;;;13.00;99.90;;;;;;5115397;27;20209;-84
2020/12/22 09:45:40;;;;;;;2.20;2.10;;;13.00;99.90;;;;;;5129016;27;20204;-84
2020/12/22 09:48:06;;;;;;;5.43;3.22;;;13.00;99.90;;;;;;5134086;27;20204;-84
2020/12/22 09:50:33;;;;;;;1.90;1.80;;;13.00;99.90;;;;;;5132741;27;20240;-84
2020/12/22 09:53:00;;;;;;;2.60;2.40;;;13.00;99.90;;;;;;5133960;27;20214;-84
2020/12/22 09:55:27;;;;;;;3.47;2.50;;;13.00;99.90;;;;;;5114222;27;20193;-84
2020/12/22 09:57:53;;;;;;;2.90;2.50;;;13.00;99.90;;;;;;5117124;27;20586;-84
2020/12/22 10:00:19;;;;;;;2.00;1.90;;;13.00;99.90;;;;;;5113234;28;20700;-84
2020/12/22 10:02:46;;;;;;;2.60;2.40;;;13.00;99.90;;;;;;5124246;27;20219;-84
2020/12/22 10:05:12;;;;;;;2.67;2.47;;;13.00;99.90;;;;;;5125100;27;20250;-84
2020/12/22 10:07:38;;;;;;;5.30;2.50;;;13.00;99.90;;;;;;5113491;28;20593;-84
2020/12/22 10:10:05;;;;;;;3.33;1.92;;;13.00;99.90;;;;;;5113438;27;20655;-84
2020/12/22 10:12:32;;;;;;;3.45;3.15;;;13.00;99.90;;;;;;5112898;28;20197;-84
2020/12/22 10:14:58;;;;;;;2.60;2.00;;;13.00;99.90;;;;;;5113635;27;20633;-84
2020/12/22 10:17:24;;;;;;;2.28;2.10;;;13.00;99.90;;;;;;5112980;28;20200;-84
2020/12/22 10:19:50;;;;;;;2.55;2.35;;;13.00;99.90;;;;;;5112661;28;20658;-84
2020/12/22 10:22:17;;;;;;;2.05;1.80;;;13.00;99.90;;;;;;5112909;28;20221;-84
2020/12/22 10:24:43;;;;;;;2.85;2.25;;;13.00;99.90;;;;;;5125853;27;20199;-84
2020/12/22 10:27:10;;;;;;;5.05;2.30;;;13.00;99.90;;;;;;5129404;27;20197;-85
2020/12/22 10:29:36;;;;;;;2.53;2.33;;;13.10;99.90;;;;;;5121443;27;20196;-85
2020/12/22 10:32:02;;;;;;;3.78;2.65;;;13.10;99.90;;;;;;5130502;27;20778;-84
2020/12/22 10:34:29;;;;;;;3.60;2.20;;;13.20;99.90;;;;;;5117299;27;20267;-84
2020/12/22 10:36:56;;;;;;;3.22;1.65;;;13.20;99.90;;;;;;5121219;27;20202;-84
2020/12/22 10:39:23;;;;;;;2.10;1.90;;;13.20;99.90;;;;;;5117321;28;20220;-79
2020/12/22 10:41:49;;;;;;;1.88;1.75;;;13.20;99.90;;;;;;5112462;28;20196;-79
2020/12/22 10:44:16;;;;;;;4.68;3.00;;;13.30;99.90;;;;;;5117755;28;20204;-80
2020/12/22 10:46:46;;;;;;;4.25;2.22;;;13.30;99.90;;;;;;5125346;27;20209;-84
2020/12/22 10:49:13;;;;;;;2.55;1.95;;;13.30;99.90;;;;;;5129483;27;20196;-85
2020/12/22 10:51:39;;;;;;;1.80;1.70;;;13.30;99.90;;;;;;5130377;27;20191;-83
2020/12/22 10:54:05;;;;;;;2.05;1.70;;;13.40;99.90;;;;;;5120219;27;20196;-83
2020/12/22 10:56:32;;;;;;;2.08;1.50;;;13.40;99.90;;;;;;5128443;27;20250;-84
2020/12/22 10:59:00;;;;;;;1.90;1.70;;;13.40;99.90;;;;;;5132098;27;20220;-80
2020/12/22 11:01:27;;;;;;;5.30;2.03;;;13.40;99.90;;;;;;5131016;27;20192;-80
2020/12/22 11:03:54;;;;;;;1.70;1.25;;;13.40;99.90;;;;;;5122281;27;20246;-80
2020/12/22 11:06:28;;;;;;;3.90;2.55;;;13.40;99.90;;;;;;5120253;27;20204;-82
2020/12/22 11:08:55;;;;;;;2.55;1.73;;;13.30;99.90;;;;;;5125645;27;20229;-82
2020/12/22 11:11:21;;;;;;;2.53;1.50;;;13.40;99.90;;;;;;5115955;28;20196;-78
2020/12/22 11:13:48;;;;;;;4.18;1.75;;;13.30;99.90;;;;;;5126803;27;20208;-77
2020/12/22 11:16:14;;;;;;;2.38;1.70;;;13.40;99.90;;;;;;5129154;27;20197;-82
2020/12/22 11:18:41;;;;;;;3.22;1.80;;;13.30;99.90;;;;;;5126080;27;20197;-77
2020/12/22 11:21:11;;;;;;;1.63;1.52;;;13.30;99.90;;;;;;5128177;27;20220;-79
2020/12/22 11:23:38;;;;;;;2.30;1.98;;;13.30;99.90;;;;;;5134108;27;20242;-80
2020/12/22 11:26:05;;;;;;;2.80;1.85;;;13.30;99.90;;;;;;5135998;27;20264;-82
2020/12/22 11:28:31;;;;;;;4.95;1.95;;;13.30;99.90;;;;;;5132329;27;20654;-82
2020/12/22 11:30:57;;;;;;;3.45;2.03;;;13.30;99.90;;;;;;5135528;27;20207;-80
2020/12/22 11:33:23;;;;;;;2.50;1.75;;;13.30;99.90;;;;;;5125489;27;20196;-78
2020/12/22 11:35:51;;;;;;;2.65;1.50;;;13.30;99.90;;;;;;5121202;27;20200;-77
2020/12/22 11:38:17;;;;;;;7.55;2.10;;;13.30;99.90;;;;;;5124771;27;20192;-77
2020/12/22 11:40:43;;;;;;;1.60;1.50;;;13.30;99.90;;;;;;5123501;27;20790;-76
2020/12/22 11:43:12;;;;;;;4.93;1.67;;;13.30;99.90;;;;;;5133666;27;20746;-79
2020/12/22 11:45:38;;;;;;;4.60;2.00;;;13.30;99.90;;;;;;5134441;27;20192;-80
2020/12/22 11:48:04;;;;;;;1.90;1.50;;;13.30;99.90;;;;;;5119794;27;20192;-79
2020/12/22 11:50:31;;;;;;;2.08;1.75;;;13.30;99.90;;;;;;5116719;27;20196;-80
2020/12/22 11:52:58;;;;;;;3.58;1.42;;;13.40;99.90;;;;;;5132278;27;20198;-79
2020/12/22 11:55:25;;;;;;;2.25;2.03;;;13.30;99.90;;;;;;5130815;27;20532;-81
2020/12/22 11:57:51;;;;;;;1.58;1.20;;;13.30;99.90;;;;;;5131263;27;20566;-82
2020/12/22 12:00:18;;;;;;;2.90;2.00;;;13.40;99.90;;;;;;5135655;27;20196;-81
2020/12/22 12:02:44;;;;;;;1.88;1.73;;;13.40;99.90;;;;;;5123357;27;20220;-82
2020/12/22 12:05:10;;;;;;;2.15;1.50;;;13.40;99.90;;;;;;5115735;28;20196;-81
2020/12/22 12:07:36;;;;;;;1.45;1.35;;;13.40;99.90;;;;;;5117478;27;20200;-80
2020/12/22 12:10:04;;;;;;;2.80;1.52;;;13.40;99.90;;;;;;5119168;27;20245;-82
2020/12/22 12:12:30;;;;;;;2.10;1.40;;;13.40;99.90;;;;;;5122083;27;20245;-83
2020/12/22 12:14:56;;;;;;;1.73;1.58;;;13.40;99.90;;;;;;5115134;28;20205;-83
2020/12/22 12:17:23;;;;;;;1.83;1.70;;;13.40;99.90;;;;;;5114703;27;20200;-84
2020/12/22 12:19:49;;;;;;;3.47;1.38;;;13.40;99.90;;;;;;5116042;27;20219;-83
2020/12/22 12:22:15;;;;;;;4.95;1.50;;;13.30;99.90;;;;;;5117603;27;20216;-84
2020/12/22 12:24:41;;;;;;;4.35;1.60;;;13.30;99.90;;;;;;5120762;27;20206;-83
2020/12/22 12:27:09;;;;;;;2.15;1.52;;;13.40;99.90;;;;;;5129459;27;20234;-83
2020/12/22 12:29:35;;;;;;;2.63;1.40;;;13.40;99.90;;;;;;5114592;27;20193;-80
2020/12/22 12:32:01;;;;;;;2.58;1.58;;;13.40;99.90;;;;;;5127726;27;20249;-79
2020/12/22 12:34:27;;;;;;;1.20;1.00;;;13.40;99.90;;;;;;5123573;27;20196;-81
2020/12/22 12:36:54;;;;;;;2.20;1.30;;;13.40;99.90;;;;;;5129660;27;20193;-78
2020/12/22 12:39:20;;;;;;;4.80;1.85;;;13.40;99.90;;;;;;5132567;27;20196;-80
2020/12/22 12:41:48;;;;;;;1.38;1.10;;;13.40;99.90;;;;;;5119920;27;20707;-80
2020/12/22 12:44:15;;;;;;;2.17;1.33;;;13.40;99.90;;;;;;5114425;28;20200;-80
2020/12/22 12:46:42;;;;;;;2.28;1.35;;;13.40;99.90;;;;;;5116796;27;20192;-78
2020/12/22 12:49:10;;;;;;;3.05;1.40;;;13.40;99.90;;;;;;5117590;27;20196;-79